createdAt,value
2017-05-29T00:01:08.187Z,84.00
2017-05-29T00:03:37.178Z,84.60
2017-05-29T00:06:06.177Z,84.70
2017-05-29T00:08:35.172Z,85.20
2017-05-29T00:11:04.163Z,85.50
2017-05-29T00:13:33.347Z,85.10
2017-05-29T00:16:02.318Z,85.80
2017-05-29T00:18:31.293Z,86.70
2017-05-29T00:21:00.517Z,86.20
2017-05-29T00:23:29.481Z,86.10
2017-05-29T00:25:58.462Z,86.10
2017-05-29T00:28:27.906Z,86.50
2017-05-29T00:30:56.879Z,86.30
2017-05-29T00:33:25.858Z,85.70
2017-05-29T00:35:55.291Z,86.30
2017-05-29T00:38:24.266Z,85.90
2017-05-29T00:40:53.252Z,86.10
2017-05-29T00:43:22.468Z,86.00
2017-05-29T00:45:51.433Z,85.70
2017-05-29T00:48:20.405Z,85.80
2017-05-29T01:03:30.749Z,85.80
2017-05-29T01:05:59.725Z,86.80
2017-05-29T01:08:28.703Z,86.90
2017-05-29T01:10:57.732Z,87.20
2017-05-29T01:13:26.714Z,86.90
2017-05-29T01:15:55.693Z,86.90
2017-05-29T01:18:24.697Z,86.80
2017-05-29T01:20:53.698Z,86.90
2017-05-29T01:23:22.673Z,86.70
2017-05-29T01:25:52.006Z,87.30
2017-05-29T01:28:20.981Z,87.40
2017-05-29T01:30:49.969Z,88.10
2017-05-29T01:33:19.415Z,87.30
2017-05-29T01:35:48.386Z,86.70
2017-05-29T01:38:17.427Z,86.30
2017-05-29T01:40:46.437Z,86.00
2017-05-29T01:43:15.415Z,86.20
2017-05-29T01:45:44.390Z,85.70
2017-05-29T01:48:13.413Z,86.10
2017-05-29T01:50:42.394Z,85.60
2017-05-29T01:53:11.361Z,86.60
2017-05-29T01:55:40.356Z,87.70
2017-05-29T01:58:09.337Z,88.10
2017-05-29T02:00:38.697Z,87.90
2017-05-29T02:03:07.673Z,87.10
2017-05-29T02:05:36.656Z,86.40
2017-05-29T02:08:05.821Z,86.20
2017-05-29T02:10:34.813Z,85.80
2017-05-29T02:13:03.822Z,86.20
2017-05-29T02:15:33.197Z,85.90
2017-05-29T02:18:02.165Z,86.60
2017-05-29T02:20:31.145Z,86.00
2017-05-29T02:23:00.145Z,85.70
2017-05-29T02:25:29.121Z,85.20
2017-05-29T02:27:58.105Z,85.40
2017-05-29T02:30:27.158Z,85.50
2017-05-29T02:32:56.133Z,86.10
2017-05-29T02:35:25.122Z,85.80
2017-05-29T02:37:54.335Z,85.30
2017-05-29T02:40:23.306Z,85.60
2017-05-29T02:42:52.302Z,86.20
2017-05-29T02:45:21.507Z,86.40
2017-05-29T02:47:50.488Z,86.00
2017-05-29T02:50:19.538Z,85.70
2017-05-29T02:52:48.690Z,85.30
2017-05-29T02:55:17.664Z,85.00
2017-05-29T02:57:46.648Z,85.30
2017-05-29T03:00:15.685Z,85.50
2017-05-29T03:02:44.663Z,85.70
2017-05-29T03:05:13.636Z,86.30
2017-05-29T03:07:42.654Z,87.00
2017-05-29T03:10:11.629Z,87.00
2017-05-29T03:12:40.606Z,86.90
2017-05-29T03:15:09.618Z,86.80
2017-05-29T03:17:38.595Z,86.60
2017-05-29T03:20:07.573Z,86.80
2017-05-29T03:22:36.581Z,87.00
2017-05-29T03:25:05.561Z,86.80
2017-05-29T03:27:34.538Z,87.40
2017-05-29T03:30:03.688Z,87.30
2017-05-29T03:32:32.662Z,86.80
2017-05-29T03:35:01.640Z,87.40
2017-05-29T03:37:30.630Z,86.60
2017-05-29T03:39:59.611Z,86.80
2017-05-29T03:42:28.597Z,86.90
2017-05-29T03:44:57.598Z,86.50
2017-05-29T03:47:26.589Z,85.80
2017-05-29T03:49:55.567Z,85.60
2017-05-29T03:52:24.584Z,85.80
2017-05-29T03:54:53.562Z,86.50
2017-05-29T03:57:22.542Z,85.80
2017-05-29T03:59:51.789Z,86.30
2017-05-29T04:02:20.767Z,85.20
2017-05-29T04:04:49.750Z,83.10
2017-05-29T04:07:18.749Z,82.10
2017-05-29T04:09:47.725Z,82.50
2017-05-29T04:12:16.713Z,82.00
2017-05-29T04:14:45.723Z,82.70
2017-05-29T04:17:14.704Z,82.80
2017-05-29T04:19:43.694Z,82.10
2017-05-29T04:22:12.682Z,79.80
2017-05-29T04:24:41.654Z,79.10
2017-05-29T04:27:10.654Z,78.40
2017-05-29T04:29:39.645Z,77.60
2017-05-29T04:32:08.637Z,77.10
2017-05-29T04:34:37.630Z,77.30
2017-05-29T04:37:06.635Z,77.00
2017-05-29T04:39:35.618Z,76.30
2017-05-29T04:42:04.603Z,75.70
2017-05-29T04:44:33.649Z,77.50
2017-05-29T04:47:02.622Z,77.40
2017-05-29T04:49:31.601Z,77.80
2017-05-29T04:52:00.598Z,78.80
2017-05-29T04:54:29.401Z,77.20
2017-05-29T04:56:58.379Z,76.80
2017-05-29T04:59:27.466Z,76.30
2017-05-29T05:01:56.434Z,76.50
2017-05-29T05:04:25.403Z,76.20
2017-05-29T05:06:54.429Z,75.70
2017-05-29T05:09:23.404Z,75.10
2017-05-29T05:11:52.373Z,75.10
2017-05-29T05:14:21.386Z,73.20
2017-05-29T05:16:50.376Z,72.30
2017-05-29T05:19:19.353Z,72.60
2017-05-29T05:21:49.169Z,72.30
2017-05-29T05:24:18.182Z,73.40
2017-05-29T05:26:47.756Z,72.20
2017-05-29T05:29:16.750Z,71.00
2017-05-29T05:31:45.742Z,68.50
2017-05-29T05:34:14.714Z,66.40
2017-05-29T05:36:43.734Z,66.80
2017-05-29T05:39:12.709Z,66.30
2017-05-29T05:41:41.673Z,64.90
2017-05-29T05:44:10.694Z,66.10
2017-05-29T05:46:39.674Z,65.70
2017-05-29T05:49:08.655Z,62.90
2017-05-29T05:51:37.647Z,63.90
2017-05-29T05:54:06.623Z,65.10
2017-05-29T05:56:35.602Z,65.10
2017-05-29T05:59:04.594Z,66.50
2017-05-29T06:01:34.394Z,66.70
2017-05-29T06:04:03.362Z,65.80
2017-05-29T06:06:32.358Z,66.50
2017-05-29T06:09:01.336Z,66.20
2017-05-29T06:11:30.300Z,67.10
2017-05-29T06:13:59.289Z,65.30
2017-05-29T06:16:28.263Z,62.70
2017-05-29T06:18:56.461Z,62.60
2017-05-29T06:21:25.580Z,63.50
2017-05-29T06:23:54.550Z,59.10
2017-05-29T06:26:23.535Z,58.20
2017-05-29T06:28:52.521Z,57.90
2017-05-29T06:31:21.517Z,58.70
2017-05-29T06:33:50.502Z,57.80
2017-05-29T06:36:19.494Z,55.50
2017-05-29T06:38:49.145Z,57.30
2017-05-29T06:41:18.110Z,56.60
2017-05-29T06:43:47.138Z,57.70
2017-05-29T06:46:15.358Z,57.60
2017-05-29T06:48:44.349Z,55.80
2017-05-29T06:51:13.351Z,54.20
2017-05-29T06:53:42.326Z,53.90
2017-05-29T06:56:11.330Z,57.00
2017-05-29T06:58:40.331Z,52.70
2017-05-29T07:01:09.314Z,54.70
2017-05-29T07:03:38.294Z,51.00
2017-05-29T07:06:07.295Z,54.90
2017-05-29T07:08:36.268Z,50.30
2017-05-29T07:11:05.247Z,47.70
2017-05-29T07:13:34.243Z,49.00
2017-05-29T07:16:03.211Z,48.90
2017-05-29T07:18:32.193Z,46.70
2017-05-29T07:21:01.194Z,43.90
2017-05-29T07:23:30.174Z,46.00
2017-05-29T07:25:59.170Z,46.10
2017-05-29T07:28:28.186Z,43.90
2017-05-29T07:30:57.169Z,43.00
2017-05-29T07:33:26.149Z,42.50
2017-05-29T07:35:55.150Z,41.00
2017-05-29T07:38:24.132Z,42.40
2017-05-29T07:40:53.115Z,40.80
2017-05-29T07:43:22.108Z,42.50
2017-05-29T07:45:51.085Z,43.40
2017-05-29T07:48:20.086Z,43.40
2017-05-29T07:50:49.077Z,41.60
2017-05-29T07:53:18.402Z,42.30
2017-05-29T07:55:47.376Z,40.20
2017-05-29T07:58:16.366Z,44.20
2017-05-29T08:00:45.345Z,39.70
2017-05-29T08:03:14.338Z,43.60
2017-05-29T08:05:43.331Z,43.60
2017-05-29T08:08:12.301Z,42.20
2017-05-29T08:10:41.315Z,41.40
2017-05-29T08:13:10.307Z,43.90
2017-05-29T08:15:39.286Z,39.40
2017-05-29T08:18:08.263Z,41.50
2017-05-29T08:20:37.299Z,37.70
2017-05-29T08:23:06.320Z,38.90
2017-05-29T08:25:35.312Z,38.20
2017-05-29T08:28:04.905Z,38.20
2017-05-29T08:30:33.873Z,38.50
2017-05-29T08:33:02.862Z,37.70
2017-05-29T08:35:32.266Z,34.00
2017-05-29T08:38:01.247Z,34.80
2017-05-29T08:40:30.219Z,34.40
2017-05-29T08:42:59.245Z,32.90
2017-05-29T08:48:03.594Z,37.20
2017-05-29T08:53:08.030Z,34.90
2017-05-29T08:55:37.001Z,33.70
2017-05-29T08:58:05.990Z,33.40
2017-05-29T09:00:34.981Z,34.70
2017-05-29T09:03:03.963Z,33.10
2017-05-29T09:05:32.945Z,34.00
2017-05-29T09:08:01.940Z,34.90
2017-05-29T09:10:30.929Z,34.80
2017-05-29T09:13:00.026Z,34.40
2017-05-29T09:15:29.080Z,34.00
2017-05-29T09:17:58.062Z,35.20
2017-05-29T09:20:27.053Z,34.70
2017-05-29T09:22:56.063Z,35.20
2017-05-29T09:25:25.047Z,33.30
2017-05-29T09:27:54.028Z,35.00
2017-05-29T09:30:23.035Z,33.70
2017-05-29T09:32:52.027Z,34.40
2017-05-29T09:35:21.023Z,34.20
2017-05-29T09:37:50.031Z,35.30
2017-05-29T09:40:19.011Z,32.80
2017-05-29T09:42:47.982Z,35.40
2017-05-29T09:45:16.999Z,34.20
2017-05-29T09:47:45.986Z,34.50
2017-05-29T09:50:14.979Z,37.20
2017-05-29T09:52:43.983Z,34.30
2017-05-29T09:55:12.958Z,38.10
2017-05-29T09:57:41.957Z,33.50
2017-05-29T10:00:10.967Z,33.50
2017-05-29T10:02:39.974Z,32.90
2017-05-29T10:05:08.944Z,35.30
2017-05-29T10:07:37.934Z,32.00
2017-05-29T10:10:06.919Z,32.40
2017-05-29T10:12:35.898Z,32.70
2017-05-29T10:15:04.886Z,33.30
2017-05-29T10:17:33.861Z,34.20
2017-05-29T10:20:02.907Z,33.20
2017-05-29T10:22:31.878Z,34.30
2017-05-29T10:25:00.878Z,34.70
2017-05-29T10:27:29.868Z,33.80
2017-05-29T10:29:58.870Z,37.20
2017-05-29T10:32:27.854Z,33.60
2017-05-29T10:34:56.861Z,33.30
2017-05-29T10:37:25.847Z,34.10
2017-05-29T10:39:54.826Z,34.20
2017-05-29T10:42:23.813Z,33.40
2017-05-29T10:44:52.818Z,33.10
2017-05-29T10:47:21.791Z,33.30
2017-05-29T10:49:50.764Z,34.70
2017-05-29T10:52:19.754Z,33.10
2017-05-29T10:54:48.741Z,32.50
2017-05-29T10:57:17.714Z,33.50
2017-05-29T10:59:46.723Z,32.60
2017-05-29T11:02:15.697Z,32.10
2017-05-29T11:04:44.667Z,34.00
2017-05-29T11:07:13.694Z,34.60
2017-05-29T11:09:42.657Z,32.10
2017-05-29T11:12:11.639Z,33.10
2017-05-29T11:14:41.327Z,30.90
2017-05-29T11:17:10.297Z,33.10
2017-05-29T11:19:39.280Z,32.00
2017-05-29T11:22:08.273Z,32.30
2017-05-29T11:24:37.262Z,30.90
2017-05-29T11:27:06.239Z,32.20
2017-05-29T11:29:35.242Z,29.90
2017-05-29T11:32:04.218Z,32.90
2017-05-29T11:34:33.193Z,32.00
2017-05-29T11:37:02.251Z,29.40
2017-05-29T11:39:31.233Z,30.70
2017-05-29T11:42:00.222Z,29.60
2017-05-29T11:44:29.252Z,30.00
2017-05-29T11:46:58.234Z,30.30
2017-05-29T11:49:27.202Z,30.90
2017-05-29T11:51:56.223Z,31.30
2017-05-29T11:54:25.221Z,31.70
2017-05-29T11:56:54.209Z,31.90
2017-05-29T11:59:23.203Z,31.50
2017-05-29T12:01:52.178Z,31.40
2017-05-29T12:04:21.162Z,32.30
2017-05-29T12:06:50.192Z,33.20
2017-05-29T12:09:19.157Z,31.90
2017-05-29T12:11:48.130Z,32.60
2017-05-29T12:14:17.150Z,31.80
2017-05-29T12:16:46.117Z,34.40
2017-05-29T12:19:15.089Z,32.40
2017-05-29T12:21:44.082Z,32.10
2017-05-29T12:24:13.074Z,32.40
2017-05-29T12:26:42.059Z,32.50
2017-05-29T12:29:11.065Z,32.00
2017-05-29T12:31:40.050Z,34.30
2017-05-29T12:34:09.025Z,34.90
2017-05-29T12:36:38.028Z,35.60
2017-05-29T12:39:07.007Z,32.10
2017-05-29T12:41:35.994Z,34.00
2017-05-29T12:44:04.986Z,33.30
2017-05-29T12:46:33.980Z,31.30
2017-05-29T12:49:02.954Z,33.70
2017-05-29T12:51:31.952Z,33.50
2017-05-29T12:54:00.938Z,32.80
2017-05-29T12:56:29.918Z,32.70
2017-05-29T12:58:58.948Z,32.20
2017-05-29T13:01:27.971Z,33.20
2017-05-29T13:03:56.945Z,32.60
2017-05-29T13:06:25.930Z,34.30
2017-05-29T13:08:54.898Z,34.80
2017-05-29T13:11:23.892Z,32.30
2017-05-29T13:13:52.907Z,32.40
2017-05-29T13:16:21.878Z,31.30
2017-05-29T13:18:50.846Z,33.00
2017-05-29T13:21:19.865Z,33.70
2017-05-29T13:23:48.846Z,35.40
2017-05-29T13:26:17.825Z,34.50
2017-05-29T13:28:46.895Z,35.10
2017-05-29T13:31:15.930Z,36.10
2017-05-29T13:33:44.924Z,35.60
2017-05-29T13:36:13.933Z,34.10
2017-05-29T13:38:42.915Z,34.60
2017-05-29T13:41:11.898Z,33.70
2017-05-29T13:43:40.902Z,35.40
2017-05-29T13:46:09.888Z,35.70
2017-05-29T13:48:38.881Z,37.90
2017-05-29T13:51:07.879Z,39.40
2017-05-29T13:53:36.860Z,39.00
2017-05-29T13:56:05.850Z,44.10
2017-05-29T13:58:34.861Z,40.10
2017-05-29T14:01:03.861Z,40.90
2017-05-29T14:03:32.845Z,39.70
2017-05-29T14:06:01.848Z,39.60
2017-05-29T14:08:30.830Z,40.20
2017-05-29T14:10:59.794Z,40.70
2017-05-29T14:13:28.783Z,37.50
2017-05-29T14:15:57.773Z,38.20
2017-05-29T14:18:26.754Z,38.00
2017-05-29T14:20:55.789Z,38.10
2017-05-29T14:23:24.753Z,39.00
2017-05-29T14:25:53.731Z,39.50
2017-05-29T14:28:22.738Z,38.60
2017-05-29T14:30:51.701Z,39.00
2017-05-29T14:33:20.690Z,38.00
2017-05-29T14:35:49.690Z,38.30
2017-05-29T14:38:18.661Z,37.80
2017-05-29T14:40:47.639Z,38.50
2017-05-29T14:43:16.632Z,38.80
2017-05-29T14:45:45.614Z,38.90
2017-05-29T14:48:14.579Z,39.60
2017-05-29T14:50:44.273Z,39.80
2017-05-29T14:53:13.250Z,40.20
2017-05-29T14:55:42.322Z,40.30
2017-05-29T14:58:11.371Z,38.60
2017-05-29T15:00:40.345Z,40.20
2017-05-29T15:03:10.081Z,41.30
2017-05-29T15:05:39.104Z,40.60
2017-05-29T15:08:08.070Z,40.60
2017-05-29T15:10:37.081Z,40.80
2017-05-29T15:13:06.061Z,38.80
2017-05-29T15:15:35.050Z,39.20
2017-05-29T15:18:04.026Z,39.70
2017-05-29T15:20:33.009Z,40.20
2017-05-29T15:23:01.986Z,39.60
2017-05-29T15:25:30.973Z,38.80
2017-05-29T15:27:59.975Z,39.50
2017-05-29T15:30:28.951Z,40.00
2017-05-29T15:32:57.926Z,41.30
2017-05-29T15:35:26.938Z,41.20
2017-05-29T15:37:55.912Z,40.40
2017-05-29T15:40:24.890Z,41.30
2017-05-29T15:42:53.883Z,41.60
2017-05-29T15:45:22.857Z,42.90
2017-05-29T15:47:51.837Z,44.00
2017-05-29T15:50:20.842Z,45.50
2017-05-29T15:52:49.823Z,45.40
2017-05-29T15:55:18.794Z,45.80
2017-05-29T15:57:47.794Z,46.40
2017-05-29T16:00:16.790Z,46.70
2017-05-29T16:02:45.771Z,46.20
2017-05-29T16:05:14.780Z,47.20
2017-05-29T16:07:43.746Z,46.70
2017-05-29T16:10:12.730Z,52.70
2017-05-29T16:12:41.792Z,54.20
2017-05-29T16:15:10.768Z,59.60
2017-05-29T16:17:39.742Z,63.40
2017-05-29T16:20:08.736Z,72.00
2017-05-29T16:22:37.727Z,77.00
2017-05-29T16:25:06.702Z,78.70
2017-05-29T16:27:35.702Z,79.80
2017-05-29T16:30:04.692Z,83.20
2017-05-29T16:32:33.707Z,83.70
2017-05-29T16:35:02.689Z,84.10
2017-05-29T16:37:31.675Z,83.00
2017-05-29T16:40:00.654Z,84.50
2017-05-29T16:42:29.668Z,83.00
2017-05-29T16:44:58.678Z,82.50
2017-05-29T16:47:27.656Z,81.30
2017-05-29T16:49:56.667Z,80.40
2017-05-29T16:52:25.665Z,83.70
2017-05-29T16:54:54.641Z,81.30
2017-05-29T16:57:23.634Z,79.70
2017-05-29T16:59:52.630Z,80.30
2017-05-29T17:02:21.601Z,79.90
2017-05-29T17:04:50.607Z,82.20
2017-05-29T17:07:19.592Z,81.00
2017-05-29T17:09:48.584Z,82.30
2017-05-29T17:12:17.578Z,82.30
2017-05-29T17:14:46.554Z,81.50
2017-05-29T17:17:15.537Z,80.70
2017-05-29T17:19:44.534Z,83.20
2017-05-29T17:22:13.521Z,80.10
2017-05-29T17:24:42.507Z,82.10
2017-05-29T17:27:11.553Z,79.30
2017-05-29T17:29:40.780Z,81.30
2017-05-29T17:32:09.782Z,85.50
2017-05-29T17:34:38.810Z,86.30
2017-05-29T17:37:07.801Z,82.30
2017-05-29T17:39:36.857Z,82.30
2017-05-29T17:42:05.917Z,84.80
2017-05-29T17:44:34.914Z,82.00
2017-05-29T17:47:03.914Z,81.20
2017-05-29T17:49:33.066Z,84.60
2017-05-29T17:52:02.887Z,84.30
2017-05-29T17:54:31.857Z,85.40
2017-05-29T17:57:00.853Z,87.20
2017-05-29T17:59:30.618Z,90.40
2017-05-29T18:01:59.614Z,90.70
2017-05-29T18:04:28.614Z,90.50
2017-05-29T18:06:57.620Z,90.90
2017-05-29T18:09:26.610Z,88.30
2017-05-29T18:11:55.616Z,90.50
2017-05-29T18:14:24.657Z,90.30
2017-05-29T18:16:53.636Z,90.70
2017-05-29T18:19:22.718Z,88.30
2017-05-29T18:21:51.698Z,88.50
2017-05-29T18:24:20.675Z,88.70
2017-05-29T18:26:49.659Z,89.60
2017-05-29T18:29:18.654Z,90.20
2017-05-29T18:31:46.861Z,90.50
2017-05-29T18:34:15.892Z,89.70
2017-05-29T18:36:44.867Z,89.70
2017-05-29T18:39:13.838Z,90.40
2017-05-29T18:41:42.830Z,90.50
2017-05-29T18:44:11.814Z,90.60
2017-05-29T18:46:40.609Z,90.70
2017-05-29T18:49:09.636Z,90.30
2017-05-29T18:51:38.833Z,90.20
2017-05-29T18:54:07.814Z,88.90
2017-05-29T18:56:36.835Z,90.50
2017-05-29T18:59:05.812Z,88.50
2017-05-29T19:01:34.797Z,89.70
2017-05-29T19:04:03.790Z,89.40
2017-05-29T19:06:32.781Z,88.80
2017-05-29T19:09:01.767Z,88.70
2017-05-29T19:11:30.786Z,89.30
2017-05-29T19:13:59.772Z,89.70
2017-05-29T19:16:28.757Z,90.20
2017-05-29T19:18:57.753Z,89.30
2017-05-29T19:21:26.734Z,89.50
2017-05-29T19:23:55.759Z,89.30
2017-05-29T19:26:24.782Z,89.90
2017-05-29T19:28:53.770Z,90.30
2017-05-29T19:31:22.743Z,90.20
2017-05-29T19:33:52.305Z,90.40
2017-05-29T19:36:21.273Z,90.20
2017-05-29T19:38:50.284Z,90.00
2017-05-29T19:41:19.278Z,90.10
2017-05-29T19:43:48.254Z,90.30
2017-05-29T19:46:17.250Z,90.50
2017-05-29T19:48:46.344Z,90.50
2017-05-29T19:51:15.338Z,90.60
2017-05-29T19:53:44.312Z,90.70
2017-05-29T19:56:13.322Z,90.50
2017-05-29T19:58:42.304Z,90.80
2017-05-29T20:01:11.283Z,90.80
2017-05-29T20:03:40.282Z,90.90
2017-05-29T20:06:09.257Z,90.90
2017-05-29T20:08:38.230Z,90.90
2017-05-29T20:11:07.214Z,90.90
2017-05-29T20:13:36.198Z,91.00
2017-05-29T20:16:05.170Z,91.20
2017-05-29T20:18:34.238Z,91.00
2017-05-29T20:21:03.202Z,91.20
2017-05-29T20:23:32.177Z,91.00
2017-05-29T20:26:01.201Z,91.10
2017-05-29T20:28:30.175Z,91.10
2017-05-29T20:30:59.154Z,91.10
2017-05-29T20:33:28.143Z,91.20
2017-05-29T20:35:57.117Z,91.20
2017-05-29T20:38:26.098Z,91.10
2017-05-29T20:40:55.087Z,91.10
2017-05-29T20:43:24.063Z,91.10
2017-05-29T20:45:53.029Z,91.20
2017-05-29T20:48:22.036Z,91.40
2017-05-29T20:50:51.008Z,91.40
2017-05-29T20:53:19.977Z,91.50
2017-05-29T20:55:48.981Z,91.20
2017-05-29T20:58:17.951Z,91.20
2017-05-29T21:00:46.956Z,91.00
2017-05-29T21:03:15.942Z,91.20
2017-05-29T21:05:44.917Z,91.20
2017-05-29T21:08:13.902Z,91.20
2017-05-29T21:13:18.193Z,91.20
2017-05-29T21:15:47.182Z,91.30
2017-05-29T21:18:16.148Z,91.30
2017-05-29T21:20:45.133Z,91.50
2017-05-29T21:23:14.139Z,91.50
2017-05-29T21:25:43.127Z,91.50
2017-05-29T21:28:12.105Z,91.30
2017-05-29T21:30:41.121Z,91.30
2017-05-29T21:33:10.098Z,91.30
2017-05-29T21:35:39.075Z,91.50
2017-05-29T21:38:08.074Z,91.70
2017-05-29T21:40:37.057Z,91.70
2017-05-29T21:43:06.051Z,92.10
2017-05-29T21:45:35.288Z,92.20
2017-05-29T21:48:04.329Z,92.20
2017-05-29T21:50:33.330Z,92.20
2017-05-29T21:53:02.344Z,92.00
2017-05-29T21:55:31.310Z,92.00
2017-05-29T21:58:00.294Z,92.20
2017-05-29T22:00:29.302Z,92.20
2017-05-29T22:02:58.293Z,92.30
2017-05-29T22:05:27.279Z,92.50
2017-05-29T22:07:56.277Z,92.70
2017-05-29T22:10:25.266Z,92.80
2017-05-29T22:12:54.254Z,92.60
2017-05-29T22:15:23.252Z,92.60
2017-05-29T22:17:52.230Z,92.70
2017-05-29T22:20:21.213Z,92.70
2017-05-29T22:22:50.237Z,92.70
2017-05-29T22:25:19.230Z,92.70
2017-05-29T22:27:48.217Z,92.60
2017-05-29T22:30:17.235Z,92.60
2017-05-29T22:32:46.219Z,92.60
2017-05-29T22:35:15.197Z,92.50
2017-05-29T22:37:44.202Z,92.60
2017-05-29T22:40:13.179Z,92.80
2017-05-29T22:42:42.160Z,93.10
2017-05-29T22:45:11.155Z,93.30
2017-05-29T22:47:40.133Z,93.40
2017-05-29T22:50:09.111Z,93.30
2017-05-29T22:52:38.111Z,93.20
2017-05-29T22:55:07.987Z,93.20
2017-05-29T22:57:36.986Z,93.10
2017-05-29T23:00:05.980Z,93.20
2017-05-29T23:02:34.966Z,93.30
2017-05-29T23:05:03.949Z,93.50
2017-05-29T23:07:32.956Z,93.60
2017-05-29T23:10:01.937Z,93.60
2017-05-29T23:12:30.923Z,93.70
2017-05-29T23:14:59.925Z,93.70
2017-05-29T23:17:28.896Z,93.80
2017-05-29T23:19:57.866Z,93.80
2017-05-29T23:22:26.877Z,93.80
2017-05-29T23:24:55.857Z,93.80
2017-05-29T23:27:24.830Z,93.70
2017-05-29T23:29:53.830Z,93.40
2017-05-29T23:32:22.808Z,93.40
2017-05-29T23:34:51.781Z,93.40
2017-05-29T23:37:20.781Z,93.30
2017-05-29T23:39:49.760Z,93.40
2017-05-29T23:42:18.727Z,93.70
2017-05-29T23:44:47.728Z,93.80
2017-05-29T23:47:16.713Z,94.00
2017-05-29T23:49:45.701Z,94.10
2017-05-29T23:52:14.700Z,94.10
2017-05-29T23:54:43.674Z,94.10
2017-05-29T23:57:12.666Z,94.00
2017-05-29T23:59:41.669Z,93.90
